キエフ/ボリースピリ の空港の天気 - METARとTAF

ボリースピリ国際空港(キエフ) ( UKBB / KBP ) - ウクライナ ボリスピリ (キエフ近郊)
飛行場実況気象(Metar)
観測時間11/14 19:00 EET (11/14 17:00 UTC)
風向・風速南 5m/s
視程6000m
天気現象弱い氷霧雨
全天を覆う雲 雲底高度 120m
気温-1℃
湿度100%
気圧1023hPa
METARUKBB 141700Z 18005MPS 6000 -FZDZ OVC004 M01/M01 Q1023 R18L/821040 R18R/851036 BECMG 3000 -FZRA -SN BR OVC003
過去の天気等 Google飛行場航空写真 Wunderground天気予報

過去48時間のMETAR

飛行場予報(TAF)
発表時間: 11/14 13:01 EET (11/14 11:01 UTC)
予報対象時間: 14日14時 EET ~ 15日14時 EET
風向・風速南 6m/s 瞬間風速 12m/s
視程3000m
天気現象弱い氷雨雪 もや
全天を覆う雲 雲底高度 150m
14日14時 EET ~ 14日17時 EET に一時的に
視程1000m
天気現象しゅう雪
全天を覆う雲 雲底高度 90m
全天の8割程度の積乱雲 雲底高度 460m
15日2時 EET ~ 15日3時 EET に徐々に
風向・風速南東 4m/s
視程3000m
天気現象弱い雪 もや
全天を覆う雲 雲底高度 210m
15日3時 EET ~ 15日14時 EET に一時的に
視程1400m
天気現象氷雨雪 もや
全天を覆う雲 雲底高度 150m
TAF UKBB 141101Z 1412/1512 17006G12MPS 3000 -FZRASN BR OVC005 TXM00/1412Z TNM01/1505Z
TEMPO 1412/1415 1000 SHSN OVC003 BKN015CB
BECMG 1500/1501 13004MPS 3000 -SN BR OVC007
TEMPO 1501/1512 1400 FZRASN BR OVC005